sensor_id;sensor_type;location;lat;lon;timestamp;temperature;humidity
83142;DHT22;75194;51.180;5.972;2024-01-10T00:01:33;-3.50;54.20
83142;DHT22;75194;51.180;5.972;2024-01-10T00:03:59;-3.60;53.70
83142;DHT22;75194;51.180;5.972;2024-01-10T00:06:25;-3.60;53.80
83142;DHT22;75194;51.180;5.972;2024-01-10T00:08:50;-3.60;54.00
83142;DHT22;75194;51.180;5.972;2024-01-10T00:11:16;-3.70;53.60
83142;DHT22;75194;51.180;5.972;2024-01-10T00:13:42;-3.60;53.80
83142;DHT22;75194;51.180;5.972;2024-01-10T00:16:08;-3.50;53.80
83142;DHT22;75194;51.180;5.972;2024-01-10T00:18:34;-3.50;53.90
83142;DHT22;75194;51.180;5.972;2024-01-10T00:21:00;-3.50;53.80
83142;DHT22;75194;51.180;5.972;2024-01-10T00:23:26;-3.50;53.80
83142;DHT22;75194;51.180;5.972;2024-01-10T00:25:51;-3.60;53.50
83142;DHT22;75194;51.180;5.972;2024-01-10T00:28:17;-3.70;54.20
83142;DHT22;75194;51.180;5.972;2024-01-10T00:30:46;-3.70;53.90
83142;DHT22;75194;51.180;5.972;2024-01-10T00:33:13;-3.70;55.00
83142;DHT22;75194;51.180;5.972;2024-01-10T00:35:39;-3.60;54.10
83142;DHT22;75194;51.180;5.972;2024-01-10T00:38:05;-3.60;53.60
83142;DHT22;75194;51.180;5.972;2024-01-10T00:40:31;-3.60;53.80
83142;DHT22;75194;51.180;5.972;2024-01-10T00:42:56;-3.70;54.00
83142;DHT22;75194;51.180;5.972;2024-01-10T00:45:22;-3.60;54.40
83142;DHT22;75194;51.180;5.972;2024-01-10T00:47:51;-3.50;54.10
83142;DHT22;75194;51.180;5.972;2024-01-10T00:50:17;-3.70;53.40
83142;DHT22;75194;51.180;5.972;2024-01-10T00:52:46;-3.70;54.40
83142;DHT22;75194;51.180;5.972;2024-01-10T00:55:12;-3.80;54.00
83142;DHT22;75194;51.180;5.972;2024-01-10T00:57:37;-3.90;54.90
83142;DHT22;75194;51.180;5.972;2024-01-10T01:00:07;-3.80;54.60
83142;DHT22;75194;51.180;5.972;2024-01-10T01:02:34;-3.80;54.10
83142;DHT22;75194;51.180;5.972;2024-01-10T01:05:00;-3.70;54.20
83142;DHT22;75194;51.180;5.972;2024-01-10T01:07:26;-3.80;53.80
83142;DHT22;75194;51.180;5.972;2024-01-10T01:09:52;-3.80;54.10
83142;DHT22;75194;51.180;5.972;2024-01-10T01:12:17;-3.80;54.20
83142;DHT22;75194;51.180;5.972;2024-01-10T01:14:43;-3.90;54.10
83142;DHT22;75194;51.180;5.972;2024-01-10T01:17:09;-3.90;54.60
83142;DHT22;75194;51.180;5.972;2024-01-10T01:19:34;-3.90;54.20
83142;DHT22;75194;51.180;5.972;2024-01-10T01:22:00;-3.90;54.60
83142;DHT22;75194;51.180;5.972;2024-01-10T01:24:26;-3.90;54.20
83142;DHT22;75194;51.180;5.972;2024-01-10T01:26:52;-4.00;54.30
83142;DHT22;75194;51.180;5.972;2024-01-10T01:29:18;-4.00;54.10
83142;DHT22;75194;51.180;5.972;2024-01-10T01:31:43;-4.00;54.20
83142;DHT22;75194;51.180;5.972;2024-01-10T01:34:09;-4.00;54.50
83142;DHT22;75194;51.180;5.972;2024-01-10T01:36:35;-4.00;54.80
83142;DHT22;75194;51.180;5.972;2024-01-10T01:39:00;-4.00;54.20
83142;DHT22;75194;51.180;5.972;2024-01-10T01:41:26;-4.00;55.10
83142;DHT22;75194;51.180;5.972;2024-01-10T01:43:51;-4.00;55.30
83142;DHT22;75194;51.180;5.972;2024-01-10T01:46:17;-3.80;54.50
83142;DHT22;75194;51.180;5.972;2024-01-10T01:48:43;-3.90;54.60
83142;DHT22;75194;51.180;5.972;2024-01-10T01:51:10;-4.00;54.90
83142;DHT22;75194;51.180;5.972;2024-01-10T01:53:37;-3.90;54.50
83142;DHT22;75194;51.180;5.972;2024-01-10T01:56:07;-4.00;54.30
83142;DHT22;75194;51.180;5.972;2024-01-10T01:58:35;-3.90;54.20
83142;DHT22;75194;51.180;5.972;2024-01-10T02:01:02;-4.00;54.00
83142;DHT22;75194;51.180;5.972;2024-01-10T02:03:30;-3.90;54.20
83142;DHT22;75194;51.180;5.972;2024-01-10T02:05:56;-4.00;54.10
83142;DHT22;75194;51.180;5.972;2024-01-10T02:08:22;-4.00;54.10
83142;DHT22;75194;51.180;5.972;2024-01-10T02:10:48;-4.00;53.70
83142;DHT22;75194;51.180;5.972;2024-01-10T02:13:14;-4.00;54.10
83142;DHT22;75194;51.180;5.972;2024-01-10T02:15:40;-3.90;53.90
83142;DHT22;75194;51.180;5.972;2024-01-10T02:18:06;-3.90;53.80
83142;DHT22;75194;51.180;5.972;2024-01-10T02:20:33;-4.00;54.20
83142;DHT22;75194;51.180;5.972;2024-01-10T02:22:58;-3.90;53.50
83142;DHT22;75194;51.180;5.972;2024-01-10T02:25:24;-4.00;53.50
83142;DHT22;75194;51.180;5.972;2024-01-10T02:27:49;-4.00;54.00
83142;DHT22;75194;51.180;5.972;2024-01-10T02:30:15;-4.00;53.90
83142;DHT22;75194;51.180;5.972;2024-01-10T02:32:41;-3.90;53.60
83142;DHT22;75194;51.180;5.972;2024-01-10T02:35:07;-3.90;53.80
83142;DHT22;75194;51.180;5.972;2024-01-10T02:37:33;-3.90;53.50
83142;DHT22;75194;51.180;5.972;2024-01-10T02:39:59;-3.90;53.50
83142;DHT22;75194;51.180;5.972;2024-01-10T02:42:29;-4.00;53.70
83142;DHT22;75194;51.180;5.972;2024-01-10T02:44:55;-4.10;53.70
83142;DHT22;75194;51.180;5.972;2024-01-10T02:47:21;-4.10;54.00
83142;DHT22;75194;51.180;5.972;2024-01-10T02:49:47;-4.10;53.80
83142;DHT22;75194;51.180;5.972;2024-01-10T02:52:12;-4.10;54.30
83142;DHT22;75194;51.180;5.972;2024-01-10T02:54:38;-4.10;53.80
83142;DHT22;75194;51.180;5.972;2024-01-10T02:57:04;-4.10;53.80
83142;DHT22;75194;51.180;5.972;2024-01-10T02:59:29;-4.00;53.80
83142;DHT22;75194;51.180;5.972;2024-01-10T03:01:55;-4.00;53.40
83142;DHT22;75194;51.180;5.972;2024-01-10T03:04:20;-4.10;53.50
83142;DHT22;75194;51.180;5.972;2024-01-10T03:06:46;-4.10;53.30
83142;DHT22;75194;51.180;5.972;2024-01-10T03:09:12;-4.20;53.70
83142;DHT22;75194;51.180;5.972;2024-01-10T03:11:37;-4.20;54.00
83142;DHT22;75194;51.180;5.972;2024-01-10T03:14:07;-4.30;54.20
83142;DHT22;75194;51.180;5.972;2024-01-10T03:16:42;-4.30;54.30
83142;DHT22;75194;51.180;5.972;2024-01-10T03:19:08;-4.40;54.50
83142;DHT22;75194;51.180;5.972;2024-01-10T03:21:33;-4.40;54.50
83142;DHT22;75194;51.180;5.972;2024-01-10T03:24:00;-4.30;55.00
83142;DHT22;75194;51.180;5.972;2024-01-10T03:26:27;-4.30;54.50
83142;DHT22;75194;51.180;5.972;2024-01-10T03:28:53;-4.20;54.20
83142;DHT22;75194;51.180;5.972;2024-01-10T03:31:20;-4.20;54.00
83142;DHT22;75194;51.180;5.972;2024-01-10T03:33:46;-4.10;54.10
83142;DHT22;75194;51.180;5.972;2024-01-10T03:36:14;-4.10;53.70
83142;DHT22;75194;51.180;5.972;2024-01-10T03:38:40;-4.10;53.30
83142;DHT22;75194;51.180;5.972;2024-01-10T03:41:06;-4.10;53.10
83142;DHT22;75194;51.180;5.972;2024-01-10T03:43:32;-4.10;53.20
83142;DHT22;75194;51.180;5.972;2024-01-10T03:45:58;-4.10;53.00
83142;DHT22;75194;51.180;5.972;2024-01-10T03:48:23;-4.10;53.20
83142;DHT22;75194;51.180;5.972;2024-01-10T03:50:49;-4.10;53.10
83142;DHT22;75194;51.180;5.972;2024-01-10T03:53:15;-4.20;53.20
83142;DHT22;75194;51.180;5.972;2024-01-10T03:55:40;-4.30;53.80
83142;DHT22;75194;51.180;5.972;2024-01-10T03:58:06;-4.30;53.80
83142;DHT22;75194;51.180;5.972;2024-01-10T04:00:32;-4.30;54.10
83142;DHT22;75194;51.180;5.972;2024-01-10T04:02:57;-4.30;54.70
83142;DHT22;75194;51.180;5.972;2024-01-10T04:05:23;-4.20;54.00
83142;DHT22;75194;51.180;5.972;2024-01-10T04:07:51;-4.20;54.20
83142;DHT22;75194;51.180;5.972;2024-01-10T04:10:16;-4.20;54.00
83142;DHT22;75194;51.180;5.972;2024-01-10T04:12:43;-4.40;53.70
83142;DHT22;75194;51.180;5.972;2024-01-10T04:15:09;-4.30;54.00
83142;DHT22;75194;51.180;5.972;2024-01-10T04:17:35;-4.40;54.50
83142;DHT22;75194;51.180;5.972;2024-01-10T04:20:01;-4.40;53.90
83142;DHT22;75194;51.180;5.972;2024-01-10T04:22:26;-4.50;53.50
83142;DHT22;75194;51.180;5.972;2024-01-10T04:24:52;-4.40;54.20
83142;DHT22;75194;51.180;5.972;2024-01-10T04:27:18;-4.30;54.30
83142;DHT22;75194;51.180;5.972;2024-01-10T04:29:44;-4.40;54.40
83142;DHT22;75194;51.180;5.972;2024-01-10T04:32:10;-4.40;54.50
83142;DHT22;75194;51.180;5.972;2024-01-10T04:34:35;-4.50;54.70
83142;DHT22;75194;51.180;5.972;2024-01-10T04:37:01;-4.40;54.70
83142;DHT22;75194;51.180;5.972;2024-01-10T04:39:27;-4.40;54.80
83142;DHT22;75194;51.180;5.972;2024-01-10T04:41:53;-4.40;55.00
83142;DHT22;75194;51.180;5.972;2024-01-10T04:44:18;-4.60;54.40
83142;DHT22;75194;51.180;5.972;2024-01-10T04:46:44;-4.70;55.00
83142;DHT22;75194;51.180;5.972;2024-01-10T04:49:09;-4.50;55.30
83142;DHT22;75194;51.180;5.972;2024-01-10T04:51:35;-4.40;54.40
83142;DHT22;75194;51.180;5.972;2024-01-10T04:54:01;-4.50;53.80
83142;DHT22;75194;51.180;5.972;2024-01-10T04:56:26;-4.60;54.50
83142;DHT22;75194;51.180;5.972;2024-01-10T04:58:52;-4.60;55.10
83142;DHT22;75194;51.180;5.972;2024-01-10T05:01:18;-4.60;54.60
83142;DHT22;75194;51.180;5.972;2024-01-10T05:03:44;-4.60;54.90
83142;DHT22;75194;51.180;5.972;2024-01-10T05:06:09;-4.60;54.50
83142;DHT22;75194;51.180;5.972;2024-01-10T05:08:35;-4.70;55.20
83142;DHT22;75194;51.180;5.972;2024-01-10T05:11:01;-4.60;54.70
83142;DHT22;75194;51.180;5.972;2024-01-10T05:13:27;-4.70;55.10
83142;DHT22;75194;51.180;5.972;2024-01-10T05:15:53;-4.60;55.30
83142;DHT22;75194;51.180;5.972;2024-01-10T05:18:20;-4.60;54.90
83142;DHT22;75194;51.180;5.972;2024-01-10T05:20:46;-4.50;54.80
83142;DHT22;75194;51.180;5.972;2024-01-10T05:23:11;-4.60;55.30
83142;DHT22;75194;51.180;5.972;2024-01-10T05:25:37;-4.70;55.80
83142;DHT22;75194;51.180;5.972;2024-01-10T05:28:03;-4.90;56.50
83142;DHT22;75194;51.180;5.972;2024-01-10T05:30:29;-4.70;56.00
83142;DHT22;75194;51.180;5.972;2024-01-10T05:32:55;-4.70;55.40
83142;DHT22;75194;51.180;5.972;2024-01-10T05:35:20;-4.80;56.10
83142;DHT22;75194;51.180;5.972;2024-01-10T05:37:46;-4.70;56.50
83142;DHT22;75194;51.180;5.972;2024-01-10T05:40:12;-4.70;56.20
83142;DHT22;75194;51.180;5.972;2024-01-10T05:42:38;-4.70;56.30
83142;DHT22;75194;51.180;5.972;2024-01-10T05:45:04;-4.60;56.50
83142;DHT22;75194;51.180;5.972;2024-01-10T05:47:30;-4.70;55.80
83142;DHT22;75194;51.180;5.972;2024-01-10T05:49:56;-4.80;56.30
83142;DHT22;75194;51.180;5.972;2024-01-10T05:52:21;-4.90;56.80
83142;DHT22;75194;51.180;5.972;2024-01-10T05:54:50;-4.90;57.70
83142;DHT22;75194;51.180;5.972;2024-01-10T05:57:17;-4.90;56.90
83142;DHT22;75194;51.180;5.972;2024-01-10T05:59:42;-4.90;56.90
83142;DHT22;75194;51.180;5.972;2024-01-10T06:02:08;-5.00;56.70
83142;DHT22;75194;51.180;5.972;2024-01-10T06:04:34;-5.00;57.40
83142;DHT22;75194;51.180;5.972;2024-01-10T06:07:00;-5.10;57.50
83142;DHT22;75194;51.180;5.972;2024-01-10T06:09:26;-4.90;57.70
83142;DHT22;75194;51.180;5.972;2024-01-10T06:11:51;-5.00;57.90
83142;DHT22;75194;51.180;5.972;2024-01-10T06:14:17;-5.00;58.20
83142;DHT22;75194;51.180;5.972;2024-01-10T06:16:43;-5.10;58.10
83142;DHT22;75194;51.180;5.972;2024-01-10T06:19:13;-5.10;58.10
83142;DHT22;75194;51.180;5.972;2024-01-10T06:21:38;-5.10;58.50
83142;DHT22;75194;51.180;5.972;2024-01-10T06:24:04;-4.90;58.30
83142;DHT22;75194;51.180;5.972;2024-01-10T06:26:30;-4.80;57.20
83142;DHT22;75194;51.180;5.972;2024-01-10T06:28:55;-4.80;57.30
83142;DHT22;75194;51.180;5.972;2024-01-10T06:31:21;-4.90;57.50
83142;DHT22;75194;51.180;5.972;2024-01-10T06:33:47;-4.90;57.50
83142;DHT22;75194;51.180;5.972;2024-01-10T06:36:13;-4.90;57.40
83142;DHT22;75194;51.180;5.972;2024-01-10T06:38:39;-4.90;57.80
83142;DHT22;75194;51.180;5.972;2024-01-10T06:41:11;-4.80;57.40
83142;DHT22;75194;51.180;5.972;2024-01-10T06:43:39;-4.90;57.80
83142;DHT22;75194;51.180;5.972;2024-01-10T06:46:06;-4.80;58.10
83142;DHT22;75194;51.180;5.972;2024-01-10T06:48:32;-4.80;57.40
83142;DHT22;75194;51.180;5.972;2024-01-10T06:50:57;-4.90;57.30
83142;DHT22;75194;51.180;5.972;2024-01-10T06:53:23;-4.90;58.50
83142;DHT22;75194;51.180;5.972;2024-01-10T06:55:49;-4.70;58.10
83142;DHT22;75194;51.180;5.972;2024-01-10T06:58:15;-4.60;57.30
83142;DHT22;75194;51.180;5.972;2024-01-10T07:00:41;-4.60;57.60
83142;DHT22;75194;51.180;5.972;2024-01-10T07:03:07;-4.70;57.00
83142;DHT22;75194;51.180;5.972;2024-01-10T07:05:33;-4.70;57.30
83142;DHT22;75194;51.180;5.972;2024-01-10T07:07:59;-4.80;57.60
83142;DHT22;75194;51.180;5.972;2024-01-10T07:10:25;-4.90;58.60
83142;DHT22;75194;51.180;5.972;2024-01-10T07:12:53;-4.90;57.80
83142;DHT22;75194;51.180;5.972;2024-01-10T07:15:19;-4.80;58.00
83142;DHT22;75194;51.180;5.972;2024-01-10T07:17:45;-4.80;58.00
83142;DHT22;75194;51.180;5.972;2024-01-10T07:20:11;-4.90;57.70
83142;DHT22;75194;51.180;5.972;2024-01-10T07:22:38;-4.90;57.80
83142;DHT22;75194;51.180;5.972;2024-01-10T07:25:10;-4.90;58.10
83142;DHT22;75194;51.180;5.972;2024-01-10T07:27:43;-4.80;57.90
83142;DHT22;75194;51.180;5.972;2024-01-10T07:30:10;-4.90;58.00
83142;DHT22;75194;51.180;5.972;2024-01-10T07:32:42;-4.90;57.90
83142;DHT22;75194;51.180;5.972;2024-01-10T07:35:09;-5.00;58.00
83142;DHT22;75194;51.180;5.972;2024-01-10T07:37:42;-4.80;58.10
83142;DHT22;75194;51.180;5.972;2024-01-10T07:40:08;-4.80;57.80
83142;DHT22;75194;51.180;5.972;2024-01-10T07:42:36;-5.00;58.30
83142;DHT22;75194;51.180;5.972;2024-01-10T07:45:02;-5.20;58.60
83142;DHT22;75194;51.180;5.972;2024-01-10T07:47:30;-5.00;58.60
83142;DHT22;75194;51.180;5.972;2024-01-10T07:49:56;-5.00;58.20
83142;DHT22;75194;51.180;5.972;2024-01-10T07:52:22;-4.90;58.50
83142;DHT22;75194;51.180;5.972;2024-01-10T07:54:48;-4.80;58.40
83142;DHT22;75194;51.180;5.972;2024-01-10T07:57:13;-4.70;58.00
83142;DHT22;75194;51.180;5.972;2024-01-10T07:59:39;-4.70;57.30
83142;DHT22;75194;51.180;5.972;2024-01-10T08:02:05;-4.80;57.40
83142;DHT22;75194;51.180;5.972;2024-01-10T08:04:31;-4.80;57.60
83142;DHT22;75194;51.180;5.972;2024-01-10T08:06:56;-4.80;57.80
83142;DHT22;75194;51.180;5.972;2024-01-10T08:09:22;-4.70;57.70
83142;DHT22;75194;51.180;5.972;2024-01-10T08:11:51;-4.70;57.10
83142;DHT22;75194;51.180;5.972;2024-01-10T08:14:16;-4.70;57.20
83142;DHT22;75194;51.180;5.972;2024-01-10T08:16:42;-4.50;56.60
83142;DHT22;75194;51.180;5.972;2024-01-10T08:19:08;-4.40;55.90
83142;DHT22;75194;51.180;5.972;2024-01-10T08:21:34;-3.90;55.50
83142;DHT22;75194;51.180;5.972;2024-01-10T08:24:01;-2.90;53.10
83142;DHT22;75194;51.180;5.972;2024-01-10T08:26:27;-2.10;50.70
83142;DHT22;75194;51.180;5.972;2024-01-10T08:28:53;-0.60;47.90
83142;DHT22;75194;51.180;5.972;2024-01-10T08:31:19;0.40;45.00
83142;DHT22;75194;51.180;5.972;2024-01-10T08:33:45;0.90;44.00
83142;DHT22;75194;51.180;5.972;2024-01-10T08:36:12;1.50;43.30
83142;DHT22;75194;51.180;5.972;2024-01-10T08:38:38;1.80;41.80
83142;DHT22;75194;51.180;5.972;2024-01-10T08:41:04;2.60;40.80
83142;DHT22;75194;51.180;5.972;2024-01-10T08:43:30;3.00;39.60
83142;DHT22;75194;51.180;5.972;2024-01-10T08:45:56;2.90;39.50
83142;DHT22;75194;51.180;5.972;2024-01-10T08:48:26;3.00;39.60
83142;DHT22;75194;51.180;5.972;2024-01-10T08:50:51;3.10;39.40
83142;DHT22;75194;51.180;5.972;2024-01-10T08:53:19;3.40;38.50
83142;DHT22;75194;51.180;5.972;2024-01-10T08:55:45;2.80;38.80
83142;DHT22;75194;51.180;5.972;2024-01-10T08:58:12;2.50;39.50
83142;DHT22;75194;51.180;5.972;2024-01-10T09:00:42;2.90;39.10
83142;DHT22;75194;51.180;5.972;2024-01-10T09:03:15;2.80;38.90
83142;DHT22;75194;51.180;5.972;2024-01-10T09:05:40;3.40;39.00
83142;DHT22;75194;51.180;5.972;2024-01-10T09:08:06;3.50;38.10
83142;DHT22;75194;51.180;5.972;2024-01-10T09:10:32;3.70;38.20
83142;DHT22;75194;51.180;5.972;2024-01-10T09:12:58;3.60;38.00
83142;DHT22;75194;51.180;5.972;2024-01-10T09:15:24;4.20;37.50
83142;DHT22;75194;51.180;5.972;2024-01-10T09:17:50;4.70;36.60
83142;DHT22;75194;51.180;5.972;2024-01-10T09:20:17;4.60;36.80
83142;DHT22;75194;51.180;5.972;2024-01-10T09:22:43;5.30;35.90
83142;DHT22;75194;51.180;5.972;2024-01-10T09:25:09;5.40;35.80
83142;DHT22;75194;51.180;5.972;2024-01-10T09:27:38;6.60;34.40
83142;DHT22;75194;51.180;5.972;2024-01-10T09:30:06;6.60;33.60
83142;DHT22;75194;51.180;5.972;2024-01-10T09:32:34;6.20;34.40
83142;DHT22;75194;51.180;5.972;2024-01-10T09:35:00;6.30;34.20
83142;DHT22;75194;51.180;5.972;2024-01-10T09:37:26;6.60;33.80
83142;DHT22;75194;51.180;5.972;2024-01-10T09:39:52;7.20;33.20
83142;DHT22;75194;51.180;5.972;2024-01-10T09:42:19;7.60;32.70
83142;DHT22;75194;51.180;5.972;2024-01-10T09:44:47;8.00;32.50
83142;DHT22;75194;51.180;5.972;2024-01-10T09:47:14;8.00;31.80
83142;DHT22;75194;51.180;5.972;2024-01-10T09:49:40;6.20;33.70
83142;DHT22;75194;51.180;5.972;2024-01-10T09:52:10;5.80;34.50
83142;DHT22;75194;51.180;5.972;2024-01-10T09:54:38;5.50;34.50
83142;DHT22;75194;51.180;5.972;2024-01-10T09:57:03;4.00;36.60
83142;DHT22;75194;51.180;5.972;2024-01-10T09:59:31;4.60;36.00
83142;DHT22;75194;51.180;5.972;2024-01-10T10:01:57;5.20;35.40
83142;DHT22;75194;51.180;5.972;2024-01-10T10:04:23;6.60;33.80
83142;DHT22;75194;51.180;5.972;2024-01-10T10:07:00;6.90;33.70
83142;DHT22;75194;51.180;5.972;2024-01-10T10:09:28;6.80;33.00
83142;DHT22;75194;51.180;5.972;2024-01-10T10:11:55;6.60;33.50
83142;DHT22;75194;51.180;5.972;2024-01-10T10:14:21;7.80;32.00
83142;DHT22;75194;51.180;5.972;2024-01-10T10:16:47;7.60;32.70
83142;DHT22;75194;51.180;5.972;2024-01-10T10:19:22;8.70;31.20
83142;DHT22;75194;51.180;5.972;2024-01-10T10:21:48;8.60;30.60
83142;DHT22;75194;51.180;5.972;2024-01-10T10:24:14;7.80;31.70
83142;DHT22;75194;51.180;5.972;2024-01-10T10:26:40;7.60;31.70
83142;DHT22;75194;51.180;5.972;2024-01-10T10:29:07;8.00;32.30
83142;DHT22;75194;51.180;5.972;2024-01-10T10:31:32;9.20;30.60
83142;DHT22;75194;51.180;5.972;2024-01-10T10:34:00;9.40;30.40
83142;DHT22;75194;51.180;5.972;2024-01-10T10:36:27;10.00;29.70
83142;DHT22;75194;51.180;5.972;2024-01-10T10:38:53;10.60;29.40
83142;DHT22;75194;51.180;5.972;2024-01-10T10:41:19;10.10;29.30
83142;DHT22;75194;51.180;5.972;2024-01-10T10:43:44;10.50;28.40
83142;DHT22;75194;51.180;5.972;2024-01-10T10:46:11;9.30;29.50
83142;DHT22;75194;51.180;5.972;2024-01-10T10:48:40;9.50;29.60
83142;DHT22;75194;51.180;5.972;2024-01-10T10:53:38;10.10;29.40
83142;DHT22;75194;51.180;5.972;2024-01-10T10:56:06;10.50;28.50
83142;DHT22;75194;51.180;5.972;2024-01-10T10:58:40;11.40;28.50
83142;DHT22;75194;51.180;5.972;2024-01-10T11:01:08;11.90;27.70
83142;DHT22;75194;51.180;5.972;2024-01-10T11:03:36;12.40;27.10
83142;DHT22;75194;51.180;5.972;2024-01-10T11:06:03;13.00;26.50
83142;DHT22;75194;51.180;5.972;2024-01-10T11:08:54;13.60;26.70
83142;DHT22;75194;51.180;5.972;2024-01-10T11:25:04;13.80;25.50
83142;DHT22;75194;51.180;5.972;2024-01-10T11:27:30;13.10;26.50
83142;DHT22;75194;51.180;5.972;2024-01-10T11:29:56;14.20;25.50
83142;DHT22;75194;51.180;5.972;2024-01-10T11:32:25;14.90;25.40
83142;DHT22;75194;51.180;5.972;2024-01-10T11:34:59;14.40;25.40
83142;DHT22;75194;51.180;5.972;2024-01-10T11:37:44;14.80;25.10
83142;DHT22;75194;51.180;5.972;2024-01-10T11:40:12;13.00;26.10
83142;DHT22;75194;51.180;5.972;2024-01-10T11:42:58;11.70;27.20
83142;DHT22;75194;51.180;5.972;2024-01-10T11:47:56;7.70;30.40
83142;DHT22;75194;51.180;5.972;2024-01-10T11:50:23;5.20;33.70
83142;DHT22;75194;51.180;5.972;2024-01-10T11:52:53;3.80;35.60
83142;DHT22;75194;51.180;5.972;2024-01-10T11:55:47;3.00;37.80
83142;DHT22;75194;51.180;5.972;2024-01-10T11:58:13;2.90;38.80
83142;DHT22;75194;51.180;5.972;2024-01-10T12:00:40;2.10;38.60
83142;DHT22;75194;51.180;5.972;2024-01-10T12:03:10;2.00;39.60
83142;DHT22;75194;51.180;5.972;2024-01-10T12:05:36;2.20;40.20
83142;DHT22;75194;51.180;5.972;2024-01-10T12:08:07;2.10;38.70
83142;DHT22;75194;51.180;5.972;2024-01-10T12:10:33;2.00;38.80
83142;DHT22;75194;51.180;5.972;2024-01-10T12:13:03;1.90;39.50
83142;DHT22;75194;51.180;5.972;2024-01-10T12:15:29;2.00;39.70
83142;DHT22;75194;51.180;5.972;2024-01-10T12:17:55;2.00;39.10
83142;DHT22;75194;51.180;5.972;2024-01-10T12:20:21;2.00;39.40
83142;DHT22;75194;51.180;5.972;2024-01-10T12:22:47;2.20;39.10
83142;DHT22;75194;51.180;5.972;2024-01-10T12:25:12;2.10;38.80
83142;DHT22;75194;51.180;5.972;2024-01-10T12:27:38;2.00;37.90
83142;DHT22;75194;51.180;5.972;2024-01-10T12:30:05;1.70;38.20
83142;DHT22;75194;51.180;5.972;2024-01-10T12:32:31;1.70;39.30
83142;DHT22;75194;51.180;5.972;2024-01-10T12:35:04;1.70;38.50
83142;DHT22;75194;51.180;5.972;2024-01-10T12:37:31;1.30;39.20
83142;DHT22;75194;51.180;5.972;2024-01-10T12:39:57;1.20;38.90
83142;DHT22;75194;51.180;5.972;2024-01-10T12:42:23;1.00;39.10
83142;DHT22;75194;51.180;5.972;2024-01-10T12:44:50;1.00;39.90
83142;DHT22;75194;51.180;5.972;2024-01-10T12:47:22;1.10;39.70
83142;DHT22;75194;51.180;5.972;2024-01-10T12:49:49;1.00;39.80
83142;DHT22;75194;51.180;5.972;2024-01-10T12:52:15;1.30;39.40
83142;DHT22;75194;51.180;5.972;2024-01-10T12:54:41;1.50;38.90
83142;DHT22;75194;51.180;5.972;2024-01-10T12:57:07;1.10;39.20
83142;DHT22;75194;51.180;5.972;2024-01-10T12:59:33;1.00;39.70
83142;DHT22;75194;51.180;5.972;2024-01-10T13:01:59;0.80;40.40
83142;DHT22;75194;51.180;5.972;2024-01-10T13:04:25;0.90;40.30
83142;DHT22;75194;51.180;5.972;2024-01-10T13:06:51;0.90;40.20
83142;DHT22;75194;51.180;5.972;2024-01-10T13:09:16;0.80;41.00
83142;DHT22;75194;51.180;5.972;2024-01-10T13:11:42;0.90;41.10
83142;DHT22;75194;51.180;5.972;2024-01-10T13:14:08;1.00;41.20
83142;DHT22;75194;51.180;5.972;2024-01-10T13:16:35;1.00;41.60
83142;DHT22;75194;51.180;5.972;2024-01-10T13:19:00;1.10;41.10
83142;DHT22;75194;51.180;5.972;2024-01-10T13:21:26;1.10;41.50
83142;DHT22;75194;51.180;5.972;2024-01-10T13:23:52;1.10;41.80
83142;DHT22;75194;51.180;5.972;2024-01-10T13:26:18;0.80;41.40
83142;DHT22;75194;51.180;5.972;2024-01-10T13:28:44;0.80;42.40
83142;DHT22;75194;51.180;5.972;2024-01-10T13:31:09;0.80;42.30
83142;DHT22;75194;51.180;5.972;2024-01-10T13:33:36;0.80;41.20
83142;DHT22;75194;51.180;5.972;2024-01-10T13:36:03;0.60;41.80
83142;DHT22;75194;51.180;5.972;2024-01-10T13:38:30;0.60;43.10
83142;DHT22;75194;51.180;5.972;2024-01-10T13:40:55;0.70;42.90
83142;DHT22;75194;51.180;5.972;2024-01-10T13:43:21;0.30;43.50
83142;DHT22;75194;51.180;5.972;2024-01-10T13:45:47;0.50;43.60
83142;DHT22;75194;51.180;5.972;2024-01-10T13:48:12;0.40;43.40
83142;DHT22;75194;51.180;5.972;2024-01-10T13:50:38;0.40;43.70
83142;DHT22;75194;51.180;5.972;2024-01-10T13:53:04;0.40;43.60
83142;DHT22;75194;51.180;5.972;2024-01-10T13:55:30;0.50;43.60
83142;DHT22;75194;51.180;5.972;2024-01-10T13:57:56;0.60;43.40
83142;DHT22;75194;51.180;5.972;2024-01-10T14:00:22;0.50;43.20
83142;DHT22;75194;51.180;5.972;2024-01-10T14:02:48;0.40;43.00
83142;DHT22;75194;51.180;5.972;2024-01-10T14:05:14;0.30;43.20
83142;DHT22;75194;51.180;5.972;2024-01-10T14:07:40;0.20;43.40
83142;DHT22;75194;51.180;5.972;2024-01-10T14:10:10;0.30;44.10
83142;DHT22;75194;51.180;5.972;2024-01-10T14:12:36;0.20;44.60
83142;DHT22;75194;51.180;5.972;2024-01-10T14:15:02;0.40;44.20
83142;DHT22;75194;51.180;5.972;2024-01-10T14:17:29;0.20;44.30
83142;DHT22;75194;51.180;5.972;2024-01-10T14:19:54;0.20;44.20
83142;DHT22;75194;51.180;5.972;2024-01-10T14:22:20;0.10;45.20
83142;DHT22;75194;51.180;5.972;2024-01-10T14:24:46;0.10;45.10
83142;DHT22;75194;51.180;5.972;2024-01-10T14:27:12;0.20;44.50
83142;DHT22;75194;51.180;5.972;2024-01-10T14:29:37;0.20;44.80
83142;DHT22;75194;51.180;5.972;2024-01-10T14:32:03;0.20;44.80
83142;DHT22;75194;51.180;5.972;2024-01-10T14:34:29;0.40;44.50
83142;DHT22;75194;51.180;5.972;2024-01-10T14:36:54;0.50;44.40
83142;DHT22;75194;51.180;5.972;2024-01-10T14:39:21;0.50;44.60
83142;DHT22;75194;51.180;5.972;2024-01-10T14:41:46;0.40;44.40
83142;DHT22;75194;51.180;5.972;2024-01-10T14:44:12;0.30;44.80
83142;DHT22;75194;51.180;5.972;2024-01-10T14:46:38;0.50;45.40
83142;DHT22;75194;51.180;5.972;2024-01-10T14:49:04;0.40;44.50
83142;DHT22;75194;51.180;5.972;2024-01-10T14:51:29;0.50;44.70
83142;DHT22;75194;51.180;5.972;2024-01-10T14:53:55;0.60;44.30
83142;DHT22;75194;51.180;5.972;2024-01-10T14:56:21;0.60;44.60
83142;DHT22;75194;51.180;5.972;2024-01-10T14:58:46;0.50;44.30
83142;DHT22;75194;51.180;5.972;2024-01-10T15:01:13;0.20;44.20
83142;DHT22;75194;51.180;5.972;2024-01-10T15:03:39;0.20;44.90
83142;DHT22;75194;51.180;5.972;2024-01-10T15:06:05;0.30;44.90
83142;DHT22;75194;51.180;5.972;2024-01-10T15:08:31;0.40;44.40
83142;DHT22;75194;51.180;5.972;2024-01-10T15:10:57;0.40;44.60
83142;DHT22;75194;51.180;5.972;2024-01-10T15:13:22;0.50;44.50
83142;DHT22;75194;51.180;5.972;2024-01-10T15:15:48;0.40;44.60
83142;DHT22;75194;51.180;5.972;2024-01-10T15:18:13;0.40;44.70
83142;DHT22;75194;51.180;5.972;2024-01-10T15:20:40;0.60;44.80
83142;DHT22;75194;51.180;5.972;2024-01-10T15:23:06;0.60;44.80
83142;DHT22;75194;51.180;5.972;2024-01-10T15:25:31;0.60;44.70
83142;DHT22;75194;51.180;5.972;2024-01-10T15:27:57;0.60;45.20
83142;DHT22;75194;51.180;5.972;2024-01-10T15:30:24;0.60;45.10
83142;DHT22;75194;51.180;5.972;2024-01-10T15:32:49;0.50;45.40
83142;DHT22;75194;51.180;5.972;2024-01-10T15:35:15;0.30;46.10
83142;DHT22;75194;51.180;5.972;2024-01-10T15:37:42;0.20;46.30
83142;DHT22;75194;51.180;5.972;2024-01-10T15:40:08;0.10;46.60
83142;DHT22;75194;51.180;5.972;2024-01-10T15:42:36;0.20;46.60
83142;DHT22;75194;51.180;5.972;2024-01-10T15:45:02;0.20;47.10
83142;DHT22;75194;51.180;5.972;2024-01-10T15:47:29;0.20;47.00
83142;DHT22;75194;51.180;5.972;2024-01-10T15:49:54;0.30;47.00
83142;DHT22;75194;51.180;5.972;2024-01-10T15:52:20;0.20;46.70